createdAt,value
2023-05-04T00:02:17.027Z,95287.91
2023-05-04T00:04:45.308Z,95286.47
2023-05-04T00:07:13.970Z,95220.31
2023-05-04T00:09:42.248Z,95272.91
2023-05-04T00:12:12.667Z,95271.56
2023-05-04T00:14:42.614Z,95281.63
2023-05-04T00:17:11.734Z,95285.22
2023-05-04T00:19:42.445Z,95286.97
2023-05-04T00:22:10.672Z,95230.09
2023-05-04T00:24:38.978Z,95278.66
2023-05-04T00:27:07.457Z,95285.38
2023-05-04T00:29:37.495Z,95271.13
2023-05-04T00:32:08.755Z,95292.53
2023-05-04T00:34:36.806Z,95290.91
2023-05-04T00:37:04.875Z,95265.81
2023-05-04T00:39:35.307Z,95273.44
2023-05-04T00:42:03.790Z,95259.19
2023-05-04T00:44:31.840Z,95239.97
2023-05-04T00:47:01.524Z,95278.34
2023-05-04T00:49:31.480Z,95277.47
2023-05-04T00:52:02.296Z,95277.47
2023-05-04T00:54:31.184Z,95264.03
2023-05-04T00:56:59.647Z,95247.19
2023-05-04T00:59:27.751Z,95259.53
2023-05-04T01:01:55.660Z,95257.97
2023-05-04T01:04:23.869Z,95229.91
2023-05-04T01:07:01.964Z,95218.47
2023-05-04T01:09:38.077Z,95261.03
2023-05-04T01:12:08.425Z,95247.13
2023-05-04T01:14:37.460Z,95274.19
2023-05-04T01:17:07.674Z,95268.78
2023-05-04T01:19:37.323Z,95265.00
2023-05-04T01:22:07.317Z,95259.19
2023-05-04T01:24:35.854Z,95267.13
2023-05-04T01:27:09.200Z,95261.28
2023-05-04T01:29:45.211Z,95236.56
2023-05-04T01:32:15.613Z,95189.81
2023-05-04T01:34:43.951Z,95244.69
2023-05-04T01:37:14.067Z,95241.72
2023-05-04T01:39:42.892Z,95236.94
2023-05-04T01:42:11.032Z,95239.22
2023-05-04T01:44:39.134Z,95237.13
2023-05-04T01:47:08.392Z,95243.38
2023-05-04T01:49:36.761Z,95237.34
2023-05-04T01:52:05.087Z,95197.81
2023-05-04T01:54:34.854Z,95246.66
2023-05-04T01:57:03.470Z,95243.03
2023-05-04T01:59:31.882Z,95231.84
2023-05-04T02:02:00.524Z,95228.81
2023-05-04T02:04:29.408Z,95213.16
2023-05-04T02:06:57.487Z,95233.81
2023-05-04T02:09:26.221Z,95224.28
2023-05-04T02:11:55.610Z,95205.66
2023-05-04T02:14:25.261Z,95227.53
2023-05-04T02:16:53.651Z,95237.72
2023-05-04T02:19:22.067Z,95250.59
2023-05-04T02:21:52.596Z,95252.50
2023-05-04T02:24:20.806Z,95251.22
2023-05-04T02:26:49.299Z,95256.72
2023-05-04T02:29:18.834Z,95253.97
2023-05-04T02:31:47.555Z,95228.34
2023-05-04T02:34:15.682Z,95261.44
2023-05-04T02:36:44.478Z,95257.69
2023-05-04T02:39:13.151Z,95258.66
2023-05-04T02:41:41.236Z,95235.38
2023-05-04T02:44:10.583Z,95267.22
2023-05-04T02:46:43.718Z,95263.13
2023-05-04T02:49:11.785Z,95267.16
2023-05-04T02:51:40.080Z,95238.53
2023-05-04T02:54:08.596Z,95257.97
2023-05-04T02:56:38.862Z,95258.38
2023-05-04T02:59:07.181Z,95186.16
2023-05-04T03:01:36.287Z,95260.69
2023-05-04T03:04:07.214Z,95264.25
2023-05-04T03:06:36.510Z,95270.00
2023-05-04T03:09:05.737Z,95217.25
2023-05-04T03:11:33.918Z,95281.13
2023-05-04T03:14:02.406Z,95276.59
2023-05-04T03:16:30.746Z,95258.69
2023-05-04T03:18:59.779Z,95280.94
2023-05-04T03:21:31.870Z,95283.31
2023-05-04T03:24:00.268Z,95288.09
2023-05-04T03:26:28.466Z,95279.56
2023-05-04T03:28:56.798Z,95279.56
2023-05-04T03:31:25.421Z,95288.75
2023-05-04T03:33:53.584Z,95286.78
2023-05-04T03:36:21.654Z,95290.59
2023-05-04T03:38:51.720Z,95292.31
2023-05-04T03:41:19.911Z,95301.81
2023-05-04T03:43:48.620Z,95308.50
2023-05-04T03:46:16.942Z,95306.66
2023-05-04T03:48:44.856Z,95312.69
2023-05-04T03:51:13.141Z,95318.72
2023-05-04T03:53:43.427Z,95312.69
2023-05-04T03:56:14.490Z,95315.72
2023-05-04T03:58:42.844Z,95318.94
2023-05-04T04:01:12.536Z,95319.72
2023-05-04T04:03:41.152Z,95328.88
2023-05-04T04:06:09.922Z,95329.22
2023-05-04T04:08:38.856Z,95334.28
2023-05-04T04:11:07.002Z,95335.25
2023-05-04T04:13:38.673Z,95335.78
2023-05-04T04:16:07.267Z,95309.00
2023-05-04T04:18:35.882Z,95318.09
2023-05-04T04:21:04.147Z,95330.38
2023-05-04T04:23:32.358Z,95329.88
2023-05-04T04:26:02.075Z,95334.06
2023-05-04T04:28:30.470Z,95333.31
2023-05-04T04:31:00.410Z,95339.25
2023-05-04T04:33:28.896Z,95318.28
2023-05-04T04:35:57.467Z,95338.81
2023-05-04T04:38:26.352Z,95337.63
2023-05-04T04:40:54.497Z,95334.28
2023-05-04T04:43:22.460Z,95348.09
2023-05-04T04:45:51.320Z,95345.84
2023-05-04T04:48:25.600Z,95357.38
2023-05-04T04:50:54.371Z,95348.09
2023-05-04T04:53:22.452Z,95346.91
2023-05-04T04:55:50.613Z,95360.41
2023-05-04T04:58:18.765Z,95361.25
2023-05-04T05:00:47.686Z,95352.50
2023-05-04T05:03:16.101Z,95347.75
2023-05-04T05:05:49.135Z,95323.13
2023-05-04T05:08:17.374Z,95372.72
2023-05-04T05:10:49.242Z,95370.22
2023-05-04T05:13:17.939Z,95367.31
2023-05-04T05:15:46.352Z,95371.00
2023-05-04T05:18:14.436Z,95371.19
2023-05-04T05:20:42.762Z,95378.25
2023-05-04T05:23:12.520Z,95371.84
2023-05-04T05:25:40.672Z,95380.94
2023-05-04T05:28:09.523Z,95379.44
2023-05-04T05:30:37.716Z,95380.28
2023-05-04T05:33:05.912Z,95379.53
2023-05-04T05:35:34.073Z,95388.38
2023-05-04T05:38:03.133Z,95397.66
2023-05-04T05:40:32.793Z,95395.19
2023-05-04T05:43:01.346Z,95401.03
2023-05-04T05:45:29.439Z,95396.28
2023-05-04T05:47:59.134Z,95390.88
2023-05-04T05:50:27.400Z,95399.63
2023-05-04T05:52:55.665Z,95393.91
2023-05-04T05:55:23.648Z,95383.00
2023-05-04T05:57:53.368Z,95403.63
2023-05-04T06:00:22.067Z,95406.13
2023-05-04T06:02:50.144Z,95391.34
2023-05-04T06:05:18.369Z,95293.84
2023-05-04T06:07:47.154Z,95397.19
2023-05-04T06:10:15.482Z,95391.97
2023-05-04T06:12:43.591Z,95399.53
2023-05-04T06:15:17.356Z,95406.28
2023-05-04T06:17:45.556Z,95403.56
2023-05-04T06:20:14.268Z,95396.84
2023-05-04T06:22:42.912Z,95357.88
2023-05-04T06:25:11.841Z,95394.38
2023-05-04T06:27:40.291Z,95393.50
2023-05-04T06:30:09.950Z,95383.34
2023-05-04T06:32:39.738Z,95401.22
2023-05-04T06:35:09.155Z,95396.00
2023-05-04T06:37:37.544Z,95394.50
2023-05-04T06:40:07.392Z,95377.06
2023-05-04T06:42:39.615Z,95374.59
2023-05-04T06:45:09.418Z,95365.94
2023-05-04T06:47:37.664Z,95386.44
2023-05-04T06:50:11.961Z,95377.69
2023-05-04T06:52:42.366Z,95371.34
2023-05-04T06:55:12.198Z,95380.41
2023-05-04T06:57:40.343Z,95385.81
2023-05-04T07:00:10.815Z,95386.19
2023-05-04T07:02:39.163Z,95384.16
2023-05-04T07:05:08.167Z,95380.13
2023-05-04T07:07:40.211Z,95387.50
2023-05-04T07:10:12.015Z,95361.88
2023-05-04T07:12:40.220Z,95371.84
2023-05-04T07:15:09.851Z,95389.53
2023-05-04T07:17:39.105Z,95380.56
2023-05-04T07:20:08.977Z,95369.31
2023-05-04T07:22:38.789Z,95380.41
2023-05-04T07:25:09.068Z,95386.34
2023-05-04T07:27:37.076Z,95390.97
2023-05-04T07:30:07.881Z,95338.44
2023-05-04T07:32:36.401Z,95387.88
2023-05-04T07:35:05.121Z,95389.00
2023-05-04T07:37:33.796Z,95390.97
2023-05-04T07:40:06.294Z,95383.09
2023-05-04T07:42:34.753Z,95380.88
2023-05-04T07:45:03.373Z,95395.38
2023-05-04T07:47:32.166Z,95397.75
2023-05-04T07:50:00.277Z,95397.97
2023-05-04T07:52:29.058Z,95397.97
2023-05-04T07:54:59.789Z,95397.03
2023-05-04T07:57:30.038Z,95361.19
2023-05-04T07:59:57.988Z,95412.59
2023-05-04T08:02:26.255Z,95406.41
2023-05-04T08:04:54.446Z,95418.50
2023-05-04T08:07:22.769Z,95404.28
2023-05-04T08:09:52.891Z,95412.47
2023-05-04T08:12:21.481Z,95415.25
2023-05-04T08:14:51.670Z,95417.63
2023-05-04T08:17:20.286Z,95430.28
2023-05-04T08:19:48.538Z,95420.34
2023-05-04T08:22:16.708Z,95381.03
2023-05-04T08:24:47.180Z,95422.81
2023-05-04T08:27:18.285Z,95416.59
2023-05-04T08:29:46.867Z,95411.41
2023-05-04T08:32:17.714Z,95409.13
2023-05-04T08:34:46.262Z,95416.06
2023-05-04T08:37:14.581Z,95319.84
2023-05-04T08:39:44.469Z,95397.50
2023-05-04T08:42:13.209Z,95399.75
2023-05-04T08:44:43.369Z,95405.78
2023-05-04T08:47:13.906Z,95405.69
2023-05-04T08:49:44.556Z,95399.66
2023-05-04T08:52:14.586Z,95396.19
2023-05-04T08:54:45.057Z,95384.06
2023-05-04T08:57:14.146Z,95392.38
2023-05-04T08:59:44.207Z,95384.91
2023-05-04T09:02:15.069Z,95377.25
2023-05-04T09:04:45.058Z,95384.38
2023-05-04T09:07:13.624Z,95376.22
2023-05-04T09:09:42.441Z,95386.47
2023-05-04T09:12:10.898Z,95385.00
2023-05-04T09:14:39.237Z,95373.81
2023-05-04T09:17:18.039Z,95379.25
2023-05-04T09:19:58.900Z,95344.09
2023-05-04T09:22:28.699Z,95401.31
2023-05-04T09:25:07.616Z,95391.03
2023-05-04T09:27:36.849Z,95388.63
2023-05-04T09:30:06.877Z,95388.28
2023-05-04T09:32:38.133Z,95367.78
2023-05-04T09:35:18.718Z,95383.78
2023-05-04T09:37:54.091Z,95362.06
2023-05-04T09:40:32.673Z,95385.00
2023-05-04T09:43:01.224Z,95377.13
2023-05-04T09:45:40.383Z,95378.94
2023-05-04T09:48:19.147Z,95371.09
2023-05-04T09:51:08.891Z,95371.06
2023-05-04T09:53:41.267Z,95368.97
2023-05-04T09:56:11.877Z,95381.06
2023-05-04T09:58:41.044Z,95361.47
2023-05-04T10:01:09.262Z,95366.84
2023-05-04T10:03:38.731Z,95364.16
2023-05-04T10:06:09.263Z,95359.03
2023-05-04T10:08:41.289Z,95362.94
2023-05-04T10:11:09.684Z,95366.84
2023-05-04T10:13:37.801Z,95364.81
2023-05-04T10:16:25.713Z,95357.69
2023-05-04T10:19:12.759Z,95325.63
2023-05-04T10:21:55.983Z,95340.75
2023-05-04T10:24:56.463Z,95345.03
2023-05-04T10:27:44.579Z,95311.63
2023-05-04T10:30:15.089Z,95355.91
2023-05-04T10:32:43.651Z,95296.84
2023-05-04T10:35:12.970Z,95338.50
2023-05-04T10:37:54.687Z,95335.56
2023-05-04T10:40:35.493Z,95343.34
2023-05-04T10:43:03.989Z,95344.56
2023-05-04T10:45:39.664Z,95326.81
2023-05-04T10:48:08.568Z,95338.69
2023-05-04T10:50:44.833Z,95307.53
2023-05-04T10:53:16.156Z,95337.91
2023-05-04T10:55:47.091Z,95352.06
2023-05-04T10:58:19.267Z,95304.63
2023-05-04T11:00:51.921Z,95348.53
2023-05-04T11:03:22.531Z,95340.06
2023-05-04T11:05:52.907Z,95297.59
2023-05-04T11:08:24.352Z,95344.06
2023-05-04T11:11:02.624Z,95340.81
2023-05-04T11:13:31.257Z,95339.50
2023-05-04T11:15:59.721Z,95349.59
2023-05-04T11:18:31.485Z,95344.75
2023-05-04T11:20:59.942Z,95351.28
2023-05-04T11:23:29.918Z,95300.69
2023-05-04T11:25:59.255Z,95359.66
2023-05-04T11:28:34.624Z,95356.41
2023-05-04T11:31:03.960Z,95351.16
2023-05-04T11:33:32.068Z,95344.34
2023-05-04T11:36:02.572Z,95352.75
2023-05-04T11:38:32.104Z,95348.22
2023-05-04T11:41:00.230Z,95356.91
2023-05-04T11:43:29.796Z,95333.72
2023-05-04T11:46:01.175Z,95308.63
2023-05-04T11:48:30.464Z,95345.94
2023-05-04T11:51:00.224Z,95334.94
2023-05-04T11:53:29.528Z,95342.34
2023-05-04T11:56:04.636Z,95347.78
2023-05-04T11:58:33.289Z,95348.06
2023-05-04T12:01:01.560Z,95346.28
2023-05-04T12:03:51.277Z,95328.78
2023-05-04T12:06:31.761Z,95332.03
2023-05-04T12:09:03.671Z,95337.22
2023-05-04T12:11:33.442Z,95340.88
2023-05-04T12:14:09.986Z,95350.53
2023-05-04T12:16:39.143Z,95339.19
2023-05-04T12:19:11.472Z,95330.91
2023-05-04T12:21:51.170Z,95324.63
2023-05-04T12:24:20.242Z,95337.41
2023-05-04T12:26:49.910Z,95321.25
2023-05-04T12:29:22.186Z,95334.00
2023-05-04T12:31:51.152Z,95329.78
2023-05-04T12:34:21.414Z,95322.94
2023-05-04T12:36:53.546Z,95335.47
2023-05-04T12:39:23.062Z,95313.22
2023-05-04T12:41:53.566Z,95324.88
2023-05-04T12:44:23.349Z,95322.06
2023-05-04T12:46:51.647Z,95310.91
2023-05-04T12:49:19.903Z,95314.78
2023-05-04T12:51:49.095Z,95323.63
2023-05-04T12:54:17.383Z,95264.59
2023-05-04T12:56:46.058Z,95306.09
2023-05-04T12:59:15.836Z,95306.72
2023-05-04T13:01:44.436Z,95309.44
2023-05-04T13:04:13.477Z,95305.53
2023-05-04T13:06:48.231Z,95293.66
2023-05-04T13:09:17.158Z,95310.72
2023-05-04T13:11:45.374Z,95312.97
2023-05-04T13:14:15.674Z,95304.72
2023-05-04T13:16:43.714Z,95315.72
2023-05-04T13:19:13.195Z,95306.03
2023-05-04T13:21:41.327Z,95306.69
2023-05-04T13:24:11.518Z,95307.28
2023-05-04T13:26:39.690Z,95304.28
2023-05-04T13:29:07.965Z,95286.78
2023-05-04T13:31:44.864Z,95279.59
2023-05-04T13:34:13.868Z,95288.94
2023-05-04T13:36:42.925Z,95298.25
2023-05-04T13:39:11.271Z,95299.50
2023-05-04T13:41:39.373Z,95293.66
2023-05-04T13:44:07.333Z,95307.25
2023-05-04T13:46:36.695Z,95297.72
2023-05-04T13:49:06.706Z,95298.31
2023-05-04T13:51:37.709Z,95309.94
2023-05-04T13:54:06.141Z,95260.06
2023-05-04T13:56:35.093Z,95301.94
2023-05-04T13:59:03.773Z,95281.59
2023-05-04T14:01:32.131Z,95301.31
2023-05-04T14:04:00.854Z,95284.44
2023-05-04T14:06:31.031Z,95306.44
2023-05-04T14:08:59.764Z,95289.56
2023-05-04T14:11:28.613Z,95298.94
2023-05-04T14:13:57.150Z,95306.44
2023-05-04T14:16:26.004Z,95312.22
2023-05-04T14:18:54.583Z,95314.06
2023-05-04T14:21:22.548Z,95314.66
2023-05-04T14:23:52.140Z,95314.25
2023-05-04T14:26:20.263Z,95317.09
2023-05-04T14:28:48.928Z,95313.75
2023-05-04T14:31:17.645Z,95222.00
2023-05-04T14:33:45.844Z,95312.25
2023-05-04T14:36:14.205Z,95304.38
2023-05-04T14:38:43.044Z,95305.59
2023-05-04T14:41:13.829Z,95307.69
2023-05-04T14:43:43.025Z,95302.56
2023-05-04T14:46:14.193Z,95304.69
2023-05-04T14:48:42.487Z,95306.19
2023-05-04T14:51:10.546Z,95308.91
2023-05-04T14:53:39.622Z,95303.75
2023-05-04T14:56:08.678Z,95307.38
2023-05-04T14:58:38.646Z,95297.13
2023-05-04T15:01:08.625Z,95308.28
2023-05-04T15:03:36.728Z,95316.47
2023-05-04T15:06:08.966Z,95311.03
2023-05-04T15:08:37.499Z,95320.09
2023-05-04T15:11:05.583Z,95308.97
2023-05-04T15:13:33.676Z,95314.53
2023-05-04T15:16:04.696Z,95313.75
2023-05-04T15:18:33.026Z,95311.34
2023-05-04T15:21:01.360Z,95305.03
2023-05-04T15:23:29.728Z,95322.94
2023-05-04T15:25:57.788Z,95311.94
2023-05-04T15:28:26.319Z,95316.75
2023-05-04T15:30:54.901Z,95280.41
2023-05-04T15:33:24.558Z,95310.28
2023-05-04T15:35:54.997Z,95276.97
2023-05-04T15:38:23.242Z,95306.00
2023-05-04T15:40:53.561Z,95309.50
2023-05-04T15:43:21.784Z,95296.69
2023-05-04T15:45:52.144Z,95318.22
2023-05-04T15:48:20.246Z,95325.94
2023-05-04T15:50:50.036Z,95309.94
2023-05-04T15:53:17.986Z,95283.31
2023-05-04T15:55:46.135Z,95301.06
2023-05-04T15:58:15.187Z,95322.81
2023-05-04T16:00:43.304Z,95314.66
2023-05-04T16:03:12.367Z,95329.16
2023-05-04T16:05:40.845Z,95323.84
2023-05-04T16:08:10.701Z,95330.38
2023-05-04T16:10:38.820Z,95334.44
2023-05-04T16:13:08.064Z,95329.78
2023-05-04T16:15:37.065Z,95332.50
2023-05-04T16:18:05.734Z,95277.91
2023-05-04T16:20:33.984Z,95335.81
2023-05-04T16:23:02.412Z,95323.13
2023-05-04T16:25:33.165Z,95327.66
2023-05-04T16:28:01.198Z,95298.72
2023-05-04T16:30:33.596Z,95329.19
2023-05-04T16:33:02.310Z,95340.31
2023-05-04T16:35:31.800Z,95335.50
2023-05-04T16:38:00.335Z,95334.91
2023-05-04T16:40:29.140Z,95334.78
2023-05-04T16:42:58.912Z,95337.63
2023-05-04T16:45:31.419Z,95333.41
2023-05-04T16:47:59.783Z,95348.03
2023-05-04T16:50:28.207Z,95341.38
2023-05-04T16:52:56.548Z,95350.59
2023-05-04T16:55:26.593Z,95362.78
2023-05-04T16:57:58.584Z,95323.44
2023-05-04T17:00:27.203Z,95363.41
2023-05-04T17:02:56.773Z,95367.78
2023-05-04T17:05:25.290Z,95369.56
2023-05-04T17:07:54.253Z,95358.41
2023-05-04T17:10:22.481Z,95365.34
2023-05-04T17:12:54.332Z,95368.38
2023-05-04T17:15:25.990Z,95365.91
2023-05-04T17:17:55.872Z,95381.00
2023-05-04T17:20:28.658Z,95377.81
2023-05-04T17:23:00.961Z,95384.75
2023-05-04T17:25:29.364Z,95388.50
2023-05-04T17:27:57.827Z,95389.97
2023-05-04T18:35:11.803Z,95465.41
2023-05-04T18:37:40.113Z,95452.81
2023-05-04T18:40:10.000Z,95448.19
2023-05-04T18:42:39.886Z,95453.09
2023-05-04T18:45:10.378Z,95458.38
2023-05-04T18:47:38.670Z,95452.81
2023-05-04T18:50:08.963Z,95457.44
2023-05-04T18:52:38.706Z,95453.84
2023-05-04T18:55:08.112Z,95438.09
2023-05-04T18:57:36.309Z,95450.19
2023-05-04T19:00:06.733Z,95459.25
2023-05-04T19:02:35.091Z,95451.59
2023-05-04T19:05:03.244Z,95468.56
2023-05-04T19:07:31.545Z,95475.88
2023-05-04T19:10:01.430Z,95473.88
2023-05-04T19:12:39.173Z,95481.06
2023-05-04T19:15:08.648Z,95492.53
2023-05-04T19:17:37.246Z,95481.72
2023-05-04T19:20:06.243Z,95491.34
2023-05-04T19:22:34.905Z,95489.41
2023-05-04T19:25:06.566Z,95480.13
2023-05-04T19:27:34.833Z,95498.19
2023-05-04T19:30:03.521Z,95494.06
2023-05-04T19:32:38.854Z,95498.28
2023-05-04T19:35:09.786Z,95373.63
2023-05-04T19:37:37.850Z,95510.19
2023-05-04T19:40:09.912Z,95509.63
2023-05-04T19:42:46.312Z,95515.03
2023-05-04T19:45:15.738Z,95508.13
2023-05-04T19:47:45.911Z,95521.44
2023-05-04T19:50:15.944Z,95515.88
2023-05-04T19:52:44.588Z,95517.84
2023-05-04T19:55:14.005Z,95516.53
2023-05-04T19:57:43.108Z,95519.78
2023-05-04T20:00:13.095Z,95515.03
2023-05-04T20:02:42.551Z,95517.03
2023-05-04T20:05:11.162Z,95461.59
2023-05-04T20:07:39.680Z,95513.81
2023-05-04T20:10:08.317Z,95508.56
2023-05-04T20:12:38.749Z,95514.03
2023-05-04T20:15:09.068Z,95507.81
2023-05-04T20:17:38.209Z,95508.03
2023-05-04T20:20:07.676Z,95494.78
2023-05-04T20:22:36.261Z,95516.44
2023-05-04T20:25:05.017Z,95493.63
2023-05-04T20:27:33.172Z,95507.84
2023-05-04T20:30:02.533Z,95514.06
2023-05-04T20:32:31.403Z,95504.09
2023-05-04T20:34:59.976Z,95496.47
2023-05-04T20:37:28.314Z,95504.56
2023-05-04T20:39:56.796Z,95507.66
2023-05-04T20:42:26.046Z,95492.13
2023-05-04T20:44:54.435Z,95503.13
2023-05-04T20:47:24.879Z,95503.44
2023-05-04T20:49:53.008Z,95501.16
2023-05-04T20:52:21.506Z,95506.25
2023-05-04T20:54:50.060Z,95482.03
2023-05-04T20:57:18.359Z,95504.50
2023-05-04T20:59:46.472Z,95495.13
2023-05-04T21:02:14.515Z,95504.38
2023-05-04T21:04:48.258Z,95510.31
2023-05-04T21:07:17.646Z,95503.38
2023-05-04T21:09:46.888Z,95478.53
2023-05-04T21:12:14.993Z,95506.00
2023-05-04T21:14:44.105Z,95512.44
2023-05-04T21:17:12.466Z,95499.75
2023-05-04T21:19:43.761Z,95511.50
2023-05-04T21:22:12.501Z,95508.38
2023-05-04T21:24:40.904Z,95507.25
2023-05-04T21:27:11.612Z,95517.13
2023-05-04T21:29:40.383Z,95525.09
2023-05-04T21:32:12.158Z,95462.25
2023-05-04T21:34:40.383Z,95532.63
2023-05-04T21:37:10.090Z,95541.81
2023-05-04T21:39:38.225Z,95549.81
2023-05-04T21:42:07.511Z,95540.81
2023-05-04T21:44:37.026Z,95544.22
2023-05-04T21:47:06.066Z,95545.81
2023-05-04T21:49:35.294Z,95540.06
2023-05-04T21:52:03.313Z,95536.41
2023-05-04T21:54:32.783Z,95554.81
2023-05-04T21:57:01.007Z,95518.66
2023-05-04T21:59:29.332Z,95545.88
2023-05-04T22:01:57.911Z,95513.47
2023-05-04T22:04:26.102Z,95535.81
2023-05-04T22:06:54.583Z,95549.69
2023-05-04T22:09:23.338Z,95540.53
2023-05-04T22:11:53.723Z,95541.75
2023-05-04T22:14:22.321Z,95540.16
2023-05-04T22:16:50.758Z,95530.81
2023-05-04T22:19:21.528Z,95527.41
2023-05-04T22:21:49.671Z,95482.94
2023-05-04T22:24:18.260Z,95518.94
2023-05-04T22:26:46.782Z,95515.59
2023-05-04T22:29:16.635Z,95505.63
2023-05-04T22:31:44.820Z,95504.75
2023-05-04T22:34:12.985Z,95501.56
2023-05-04T22:36:41.367Z,95501.03
2023-05-04T22:39:12.090Z,95512.44
2023-05-04T22:41:40.537Z,95504.00
2023-05-04T22:44:09.288Z,95502.75
2023-05-04T22:46:39.532Z,95499.75
2023-05-04T22:49:08.059Z,95478.53
2023-05-04T22:51:36.322Z,95490.38
2023-05-04T22:54:05.063Z,95490.75
2023-05-04T22:56:34.324Z,95497.31
2023-05-04T22:59:02.704Z,95502.97
2023-05-04T23:01:31.014Z,95474.63
2023-05-04T23:04:03.526Z,95485.97
2023-05-04T23:06:33.934Z,95488.81
2023-05-04T23:09:03.966Z,95473.88
2023-05-04T23:11:32.093Z,95485.75
2023-05-04T23:14:00.048Z,95487.09
2023-05-04T23:16:28.407Z,95492.63
2023-05-04T23:18:56.816Z,95487.44
2023-05-04T23:21:27.475Z,95481.59
2023-05-04T23:23:55.996Z,95486.56
2023-05-04T23:26:24.734Z,95470.66
2023-05-04T23:28:53.112Z,95479.41
2023-05-04T23:31:21.476Z,95470.84
2023-05-04T23:33:51.289Z,95467.03
2023-05-04T23:36:19.889Z,95468.19
2023-05-04T23:38:52.641Z,95457.81
2023-05-04T23:41:20.981Z,95453.59
2023-05-04T23:43:50.490Z,95332.09
2023-05-04T23:46:18.579Z,95446.09
2023-05-04T23:48:47.478Z,95455.44
2023-05-04T23:51:15.688Z,95460.50
2023-05-04T23:53:43.816Z,95458.19
2023-05-04T23:56:14.541Z,95469.59
2023-05-04T23:58:43.850Z,95459.03
